Waterville Robert LaFleur Airport

About
Name: Waterville Robert LaFleur Airport
Identifier:  WVL/KWVL
Operator:  City of Waterville
Public/Private:  Public
Local Time:  18. Sep 14:29 EDT
Description: Waterville Robert Lafleur Airport is a general aviation airport located two miles southwest of the central business district of Waterville, a city in Kennebec County, Maine, USA. The airport covers 350 acres and has two runways.
Source: Wikipedia
Location
Runways
Identifier Length (m/ft) Surface
5/23 5,500/5,500 Asphalt
14/32 2,301/2,301 Asphalt
Statistics
Flights per Day:
0 flights
Distance: 188km (116mi)
Flights delayed:
50% (0 flights per day delayed)
Delay Average: 44 minutes
Current Weather
 16 C (Humidity: 44%)
  0kt from variable
  16km (10 mi.)
 
 METAR KWVL 181756Z AUTO VRB06KT 10SM CLR 16/04 A3031 RMK AO2 SLP291 T01560044 10156 20061 58005

Current Delays

Departures
N/A
Arrivals
N/A

Destinations

Top Destinations
Airport Flights
per week
Seats
per week
  Manchester (MHT) 0 - 0 0
  Bar Harbor (BHB) 0 - 0 0
  Presque Isle (PQI) 0 - 0 0

Airlines & Planes

Top Airlines
Airline Flights
per Day
Seats
per Day
Wiggins Airways 0 -
  Centennial Airlines 0 -
Top Plane Types
Model Flights Seats
Beech C-99 Airliner 0.2/day - 0
Pilatus PC-12 0.0/day - 0